Time;durP1;ratioP1;P1;durP2;ratioP2;P2;SDS_P1;SDS_P2;PMS_P1;PMS_P2;Temp;Humidity;BMP_temperature;BMP_pressure;BME280_temperature;BME280_humidity;BME280_pressure;Samples;Min_cycle;Max_cycle;Signal;HPM_P1;HPM_P2
2021/11/04 00:01:19;;;;;;;;;;;;;;;11.36;70.82;97071.64;1780560;79;25991;-87
2021/11/04 00:03:45;;;;;;;;;;;;;;;11.37;70.94;97063.64;1737664;80;20884;-87
2021/11/04 00:06:16;;;;;;;;;;;;;;;11.42;71.04;97067.13;1731881;80;20295;-88
2021/11/04 00:08:42;;;;;;;;;;;;;;;11.37;71.12;97048.41;1736812;80;24825;-84
2021/11/04 00:11:08;;;;;;;;;;;;;;;11.29;71.22;97046.54;1741770;80;20286;-88
2021/11/04 00:13:34;;;;;;;;;;;;;;;11.21;71.28;97052.97;1734649;80;21102;-88
2021/11/04 00:16:00;;;;;;;;;;;;;;;11.11;71.29;97041.23;1737772;80;20279;-88
2021/11/04 00:18:26;;;;;;;;;;;;;;;10.96;71.32;97054.95;1741356;80;20268;-87
2021/11/04 00:20:53;;;;;;;;;;;;;;;10.80;71.31;97051.63;1701326;82;24729;-86
2021/11/04 00:23:19;;;;;;;;;;;;;;;10.68;71.34;97057.98;1737235;80;21959;-86
2021/11/04 00:25:45;;;;;;;;;;;;;;;10.56;71.42;97046.02;1734074;80;21622;-84
2021/11/04 00:28:11;;;;;;;;;;;;;;;10.43;71.54;97041.91;1726694;80;24593;-83
2021/11/04 00:30:37;;;;;;;;;;;;;;;10.37;71.62;97042.46;1730995;80;20333;-83
2021/11/04 00:33:03;;;;;;;;;;;;;;;10.40;71.78;97040.89;1734161;80;24711;-84
2021/11/04 00:35:32;;;;;;;;;;;;;;;10.42;71.93;97040.25;1732740;80;20383;-84
2021/11/04 00:37:58;;;;;;;;;;;;;;;10.45;72.05;97032.14;1728142;80;26599;-83
2021/11/04 00:40:24;;;;;;;;;;;;;;;10.45;72.17;97019.06;1735491;80;24619;-83
2021/11/04 00:42:50;;;;;;;;;;;;;;;10.42;72.25;97018.50;1736973;80;20225;-84
2021/11/04 00:45:16;;;;;;;;;;;;;;;10.36;72.34;97014.69;1733299;80;24749;-87
2021/11/04 00:47:43;;;;;;;;;;;;;;;10.29;72.40;97022.73;1743590;80;22007;-88
2021/11/04 00:50:09;;;;;;;;;;;;;;;10.20;72.47;97016.22;1733841;80;26045;-85
2021/11/04 00:52:35;;;;;;;;;;;;;;;10.05;72.55;97023.13;1739793;80;24761;-86
2021/11/04 00:55:01;;;;;;;;;;;;;;;9.91;72.64;97027.48;1734110;80;20316;-86
2021/11/04 00:57:27;;;;;;;;;;;;;;;9.80;72.71;97030.22;1739353;80;20365;-87
2021/11/04 00:59:55;;;;;;;;;;;;;;;9.73;72.83;97025.19;1732329;80;20318;-86
2021/11/04 01:02:22;;;;;;;;;;;;;;;9.68;72.94;97023.95;1731938;78;26065;-86
2021/11/04 01:04:49;;;;;;;;;;;;;;;9.64;73.05;97016.39;1745997;80;24611;-86
2021/11/04 01:07:17;;;;;;;;;;;;;;;9.58;73.17;97013.50;1738987;80;20306;-87
2021/11/04 01:09:43;;;;;;;;;;;;;;;9.57;73.33;97014.45;1737120;80;24938;-88
2021/11/04 01:12:09;;;;;;;;;;;;;;;9.56;73.45;97008.40;1739154;80;20269;-89
2021/11/04 01:14:35;;;;;;;;;;;;;;;9.58;73.58;97007.80;1737464;80;26017;-89
2021/11/04 01:17:01;;;;;;;;;;;;;;;9.63;73.73;97005.59;1744546;80;20236;-89
2021/11/04 01:19:27;;;;;;;;;;;;;;;9.66;73.84;97003.17;1744299;80;21001;-88
2021/11/04 01:21:53;;;;;;;;;;;;;;;9.66;73.97;97005.31;1711188;82;24784;-88
2021/11/04 01:24:19;;;;;;;;;;;;;;;9.80;74.09;96999.34;1746513;80;22021;-87
2021/11/04 01:26:48;;;;;;;;;;;;;;;9.87;74.21;96999.95;1713400;82;26854;-87
2021/11/04 01:29:20;;;;;;;;;;;;;;;9.83;74.31;97004.28;1735405;80;24391;-89
2021/11/04 01:31:46;;;;;;;;;;;;;;;9.85;74.39;96995.84;1744956;80;20210;-89
2021/11/04 01:34:12;;;;;;;;;;;;;;;9.74;74.46;96990.27;1712764;82;24733;-89
2021/11/04 01:36:38;;;;;;;;;;;;;;;9.59;74.48;96983.81;1735623;80;22068;-89
2021/11/04 01:39:05;;;;;;;;;;;;;;;9.50;74.51;96974.98;1735422;80;26125;-88
2021/11/04 01:41:31;;;;;;;;;;;;;;;9.40;74.55;96970.23;1740146;80;24430;-88
2021/11/04 01:43:57;;;;;;;;;;;;;;;9.29;74.62;96968.23;1738420;80;20339;-88
2021/11/04 01:46:23;;;;;;;;;;;;;;;9.29;74.69;96956.48;1746824;80;25426;-88
2021/11/04 01:48:52;;;;;;;;;;;;;;;9.29;74.78;96950.78;1741582;80;22807;-86
2021/11/04 01:51:24;;;;;;;;;;;;;;;9.26;74.90;96950.23;1744449;80;26023;-84
2021/11/04 01:53:48;;;;;;;;;;;;;;;9.24;75.00;96937.31;1748856;80;24517;-84
2021/11/04 01:56:14;;;;;;;;;;;;;;;9.25;75.11;96929.83;1716072;82;20450;-84
2021/11/04 01:58:40;;;;;;;;;;;;;;;9.26;75.21;96914.52;1739333;80;24753;-84
2021/11/04 02:01:07;;;;;;;;;;;;;;;9.24;75.33;96902.91;1708209;82;20296;-84
2021/11/04 02:03:34;;;;;;;;;;;;;;;9.23;75.45;96890.81;1736979;80;26046;-83
2021/11/04 02:06:09;;;;;;;;;;;;;;;9.23;75.54;96886.89;1738709;81;24442;-84
2021/11/04 02:08:37;;;;;;;;;;;;;;;9.22;75.62;96887.84;1733120;81;20204;-87
2021/11/04 02:11:07;;;;;;;;;;;;;;;9.22;75.73;96880.49;1714236;82;25206;-87
2021/11/04 02:13:35;;;;;;;;;;;;;;;9.23;75.83;96875.63;1746618;80;21927;-85
2021/11/04 02:16:03;;;;;;;;;;;;;;;9.23;75.92;96882.15;1736609;81;26123;-87
2021/11/04 02:18:31;;;;;;;;;;;;;;;9.18;76.02;96881.26;1739353;81;24413;-87
2021/11/04 02:21:07;;;;;;;;;;;;;;;9.13;76.06;96881.32;1743014;81;20226;-87
2021/11/04 02:23:53;;;;;;;;;;;;;;;9.10;76.13;96881.61;1710584;82;24960;-84
2021/11/04 02:26:20;;;;;;;;;;;;;;;9.09;76.22;96876.04;1733821;80;22249;-87
2021/11/04 02:28:46;;;;;;;;;;;;;;;9.07;76.29;96876.64;1730178;81;25965;-87
2021/11/04 02:31:12;;;;;;;;;;;;;;;9.12;76.37;96871.84;1735327;81;24397;-84
2021/11/04 02:33:39;;;;;;;;;;;;;;;9.26;76.48;96883.20;1742982;81;20201;-86
2021/11/04 02:36:07;;;;;;;;;;;;;;;9.26;76.57;96880.59;1743268;81;24805;-84
2021/11/04 02:38:35;;;;;;;;;;;;;;;9.26;76.65;96895.42;1739052;80;22738;-88
2021/11/04 02:41:03;;;;;;;;;;;;;;;9.23;76.70;96882.15;1732840;81;26070;-89
2021/11/04 02:43:30;;;;;;;;;;;;;;;9.19;76.75;96893.36;1732174;81;24510;-87
2021/11/04 02:45:57;;;;;;;;;;;;;;;9.19;76.80;96880.30;1740716;81;20189;-87
2021/11/04 02:48:23;;;;;;;;;;;;;;;9.14;76.87;96875.97;1743214;81;24918;-89
2021/11/04 02:50:51;;;;;;;;;;;;;;;9.21;76.97;96877.09;1704642;82;20381;-89
2021/11/04 02:53:18;;;;;;;;;;;;;;;9.22;77.04;96880.49;1743322;81;25975;-88
2021/11/04 02:55:44;;;;;;;;;;;;;;;9.27;77.13;96874.89;1736227;81;24559;-87
2021/11/04 02:58:11;;;;;;;;;;;;;;;9.29;77.21;96866.42;1741543;81;20169;-87
2021/11/04 03:00:39;;;;;;;;;;;;;;;9.29;77.31;96859.42;1743366;81;24827;-86
2021/11/04 03:03:05;;;;;;;;;;;;;;;9.27;77.37;96850.92;1743813;79;23067;-88
2021/11/04 03:05:31;;;;;;;;;;;;;;;9.25;77.44;96851.53;1723036;82;25927;-84
2021/11/04 03:07:57;;;;;;;;;;;;;;;9.29;77.53;96856.80;1730714;82;24431;-84
2021/11/04 03:10:23;;;;;;;;;;;;;;;9.35;77.60;96852.82;1739919;81;20319;-88
2021/11/04 03:12:53;;;;;;;;;;;;;;;9.36;77.68;96855.30;1742136;81;24789;-88
2021/11/04 03:15:22;;;;;;;;;;;;;;;9.38;77.74;96859.09;1741267;81;22108;-89
2021/11/04 03:17:49;;;;;;;;;;;;;;;9.43;77.79;96853.80;1742200;81;25954;-87
2021/11/04 03:20:18;;;;;;;;;;;;;;;9.41;77.86;96841.83;1741916;81;24451;-88
2021/11/04 03:22:50;;;;;;;;;;;;;;;9.36;77.91;96842.73;1742042;81;20336;-87
2021/11/04 03:25:22;;;;;;;;;;;;;;;9.33;77.95;96839.90;1741600;81;25577;-84
2021/11/04 03:27:50;;;;;;;;;;;;;;;9.34;77.99;96833.72;1741013;81;22057;-84
2021/11/04 03:30:18;;;;;;;;;;;;;;;9.35;78.04;96834.55;1740120;81;26038;-84
2021/11/04 03:32:51;;;;;;;;;;;;;;;9.38;78.09;96821.23;1710715;82;24545;-84
2021/11/04 03:35:20;;;;;;;;;;;;;;;9.36;78.15;96814.84;1741744;81;20431;-85
2021/11/04 03:37:47;;;;;;;;;;;;;;;9.31;78.18;96808.38;1742506;81;24746;-89
2021/11/04 03:40:20;;;;;;;;;;;;;;;9.26;78.21;96802.76;1742104;81;21505;-89
2021/11/04 03:42:47;;;;;;;;;;;;;;;9.23;78.26;96796.84;1742017;81;26038;-88
2021/11/04 03:45:20;;;;;;;;;;;;;;;9.23;78.28;96792.10;1741525;81;24443;-89
2021/11/04 03:47:47;;;;;;;;;;;;;;;9.23;78.29;96790.80;1742333;81;20203;-88
2021/11/04 03:50:13;;;;;;;;;;;;;;;9.17;78.33;96790.04;1741589;81;25028;-89
2021/11/04 03:52:44;;;;;;;;;;;;;;;9.19;78.35;96788.12;1742433;81;23042;-89
2021/11/04 03:55:14;;;;;;;;;;;;;;;9.14;78.42;96781.20;1727142;81;26047;-84
2021/11/04 03:57:40;;;;;;;;;;;;;;;9.09;78.44;96780.80;1741745;81;24898;-84
2021/11/04 04:00:08;;;;;;;;;;;;;;;9.06;78.50;96786.27;1730057;81;20208;-84
2021/11/04 04:02:34;;;;;;;;;;;;;;;9.05;78.54;96778.95;1742444;81;24764;-84
2021/11/04 04:05:00;;;;;;;;;;;;;;;9.05;78.60;96775.52;1738934;81;22153;-84
2021/11/04 04:07:27;;;;;;;;;;;;;;;9.04;78.63;96768.64;1731509;81;25998;-84
2021/11/04 04:09:53;;;;;;;;;;;;;;;9.01;78.66;96755.86;1710561;82;24616;-88
2021/11/04 04:12:19;;;;;;;;;;;;;;;9.01;78.73;96762.37;1744958;81;20223;-89
2021/11/04 04:14:45;;;;;;;;;;;;;;;9.00;78.78;96756.84;1742012;81;20335;-88
2021/11/04 04:17:11;;;;;;;;;;;;;;;9.02;78.83;96743.98;1729208;81;21954;-88
2021/11/04 04:19:37;;;;;;;;;;;;;;;9.03;78.87;96740.42;1729532;81;26147;-88
2021/11/04 04:22:04;;;;;;;;;;;;;;;9.04;78.92;96738.64;1731236;81;24436;-87
2021/11/04 04:24:30;;;;;;;;;;;;;;;8.98;78.95;96724.84;1734791;81;20241;-84
2021/11/04 04:26:56;;;;;;;;;;;;;;;8.94;78.97;96718.27;1757879;80;24591;-83
2021/11/04 04:29:22;;;;;;;;;;;;;;;8.90;79.01;96709.04;1728629;81;21985;-87
2021/11/04 04:31:48;;;;;;;;;;;;;;;8.87;79.03;96719.29;1724296;82;20915;-87
2021/11/04 04:34:14;;;;;;;;;;;;;;;8.89;79.10;96712.64;1731039;81;20313;-83
2021/11/04 04:36:40;;;;;;;;;;;;;;;8.85;79.13;96711.25;1727075;81;20232;-86
2021/11/04 04:39:06;;;;;;;;;;;;;;;8.79;79.17;96722.58;1744689;80;25493;-86
2021/11/04 04:41:32;;;;;;;;;;;;;;;8.78;79.21;96703.17;1729627;81;20310;-87
2021/11/04 04:43:58;;;;;;;;;;;;;;;8.73;79.26;96688.39;1728023;81;21039;-84
2021/11/04 04:46:24;;;;;;;;;;;;;;;8.72;79.30;96688.08;1730075;81;24427;-85
2021/11/04 04:48:52;;;;;;;;;;;;;;;8.70;79.35;96693.42;1713874;82;20296;-85
2021/11/04 04:51:20;;;;;;;;;;;;;;;8.68;79.39;96679.69;1694929;82;20249;-88
2021/11/04 04:53:52;;;;;;;;;;;;;;;8.71;79.47;96690.33;1742174;81;22005;-89
2021/11/04 04:56:18;;;;;;;;;;;;;;;8.71;79.54;96683.34;1708427;82;26064;-88
2021/11/04 04:58:48;;;;;;;;;;;;;;;8.70;79.59;96673.86;1728223;81;20479;-89
2021/11/04 05:01:14;;;;;;;;;;;;;;;8.68;79.64;96657.52;1744210;81;21032;-88
2021/11/04 05:03:40;;;;;;;;;;;;;;;8.67;79.69;96641.53;1756985;79;20267;-87
2021/11/04 05:06:06;;;;;;;;;;;;;;;8.72;79.77;96652.39;1783282;79;22197;-86
2021/11/04 05:08:32;;;;;;;;;;;;;;;8.75;79.84;96640.36;1787152;79;25941;-86
2021/11/04 05:10:58;;;;;;;;;;;;;;;8.75;79.91;96624.72;1766657;79;24396;-86
2021/11/04 05:13:24;;;;;;;;;;;;;;;8.78;79.97;96619.72;1763551;79;20251;-86
2021/11/04 05:15:50;;;;;;;;;;;;;;;8.83;80.02;96612.77;1781590;79;20785;-86
2021/11/04 05:18:16;;;;;;;;;;;;;;;8.87;80.07;96610.21;1750642;80;20380;-85
2021/11/04 05:20:42;;;;;;;;;;;;;;;8.88;80.15;96604.03;1782936;79;21053;-86
2021/11/04 05:23:08;;;;;;;;;;;;;;;8.92;80.21;96595.78;1749742;80;24497;-86
2021/11/04 05:25:34;;;;;;;;;;;;;;;9.05;80.27;96600.69;1781981;79;20195;-86
2021/11/04 05:28:00;;;;;;;;;;;;;;;9.16;80.36;96601.31;1749178;80;25422;-86
2021/11/04 05:30:27;;;;;;;;;;;;;;;9.26;80.42;96599.99;1778659;79;20766;-86
2021/11/04 05:32:53;;;;;;;;;;;;;;;9.28;80.46;96609.79;1773862;79;26784;-86
2021/11/04 05:35:19;;;;;;;;;;;;;;;9.33;80.49;96615.39;1767508;79;20236;-84
2021/11/04 05:37:46;;;;;;;;;;;;;;;9.36;80.53;96607.30;1765426;79;20215;-84
2021/11/04 05:40:12;;;;;;;;;;;;;;;9.38;80.54;96604.03;1783767;79;25457;-84
2021/11/04 05:42:38;;;;;;;;;;;;;;;9.38;80.56;96622.31;1785100;79;22760;-84
2021/11/04 05:45:05;;;;;;;;;;;;;;;9.41;80.57;96627.74;1751121;80;21161;-84
2021/11/04 05:47:32;;;;;;;;;;;;;;;9.35;80.57;96618.70;1783728;79;24564;-84
2021/11/04 05:49:58;;;;;;;;;;;;;;;9.24;80.54;96622.80;1783442;79;20641;-84
2021/11/04 05:52:24;;;;;;;;;;;;;;;9.14;80.50;96612.88;1780653;79;20654;-84
2021/11/04 05:54:53;;;;;;;;;;;;;;;9.08;80.46;96605.14;1746148;80;20341;-84
2021/11/04 05:57:17;;;;;;;;;;;;;;;9.06;80.44;96597.92;1771207;79;26026;-84
2021/11/04 05:59:43;;;;;;;;;;;;;;;9.06;80.46;96597.92;1769430;79;24521;-84
2021/11/04 06:02:11;;;;;;;;;;;;;;;9.04;80.46;96595.13;1766299;79;20775;-84
2021/11/04 06:04:42;;;;;;;;;;;;;;;9.02;80.50;96587.92;1762385;79;24770;-84
2021/11/04 06:07:05;;;;;;;;;;;;;;;8.98;80.51;96589.17;1768122;79;21863;-84
2021/11/04 06:09:31;;;;;;;;;;;;;;;8.95;80.55;96588.13;1762632;79;22044;-84
2021/11/04 06:11:57;;;;;;;;;;;;;;;8.99;80.59;96592.95;1768904;79;24443;-84
2021/11/04 06:14:24;;;;;;;;;;;;;;;9.04;80.63;96596.44;1762863;79;20380;-84
2021/11/04 06:16:51;;;;;;;;;;;;;;;9.03;80.69;96595.61;1767927;79;24661;-84
2021/11/04 06:19:18;;;;;;;;;;;;;;;9.01;80.72;96600.62;1761501;79;22878;-84
2021/11/04 06:21:43;;;;;;;;;;;;;;;9.04;80.76;96607.70;1770750;79;25946;-84
2021/11/04 06:24:09;;;;;;;;;;;;;;;9.15;80.82;96610.61;1768649;79;20287;-84
2021/11/04 06:26:35;;;;;;;;;;;;;;;9.22;80.91;96607.75;1771492;79;20244;-84
2021/11/04 06:29:01;;;;;;;;;;;;;;;9.27;80.98;96592.51;1777379;79;20234;-84
2021/11/04 06:31:27;;;;;;;;;;;;;;;9.24;81.03;96596.22;1775807;79;22037;-84
2021/11/04 06:33:53;;;;;;;;;;;;;;;9.23;81.07;96581.52;1774878;79;20975;-84
2021/11/04 06:36:19;;;;;;;;;;;;;;;9.21;81.11;96566.50;1770817;79;20228;-84
2021/11/04 06:38:45;;;;;;;;;;;;;;;9.18;81.12;96573.30;1774569;79;20263;-84
2021/11/04 06:41:11;;;;;;;;;;;;;;;9.18;81.18;96585.04;1779234;79;20765;-84
2021/11/04 06:43:37;;;;;;;;;;;;;;;9.23;81.22;96586.73;1761504;79;20782;-84
2021/11/04 06:46:04;;;;;;;;;;;;;;;9.26;81.26;96592.16;1776655;79;21047;-84
2021/11/04 06:48:31;;;;;;;;;;;;;;;9.26;81.30;96597.38;1740518;81;24504;-83
2021/11/04 06:50:59;;;;;;;;;;;;;;;9.27;81.34;96589.89;1773802;79;20306;-84
2021/11/04 06:53:26;;;;;;;;;;;;;;;9.25;81.34;96597.03;1745332;80;24656;-84
2021/11/04 06:55:53;;;;;;;;;;;;;;;9.19;81.33;96583.25;1772522;79;21981;-84
2021/11/04 06:58:21;;;;;;;;;;;;;;;9.11;81.33;96588.38;1777912;79;26040;-84
2021/11/04 07:00:47;;;;;;;;;;;;;;;9.07;81.32;96573.48;1767176;79;24513;-83
2021/11/04 07:03:17;;;;;;;;;;;;;;;9.03;81.32;96579.13;1769945;79;20209;-83
2021/11/04 07:05:44;;;;;;;;;;;;;;;9.01;81.35;96583.17;1747113;80;24936;-83
2021/11/04 07:08:19;;;;;;;;;;;;;;;9.05;81.38;96592.39;1743301;80;22072;-83
2021/11/04 07:10:41;;;;;;;;;;;;;;;9.03;81.42;96579.13;1745241;80;26237;-84
2021/11/04 07:13:07;;;;;;;;;;;;;;;9.06;81.46;96572.30;1745353;80;24428;-85
2021/11/04 07:15:34;;;;;;;;;;;;;;;9.13;81.54;96565.08;1748105;80;20255;-85
2021/11/04 07:18:00;;;;;;;;;;;;;;;9.14;81.61;96547.16;1732368;80;24847;-85
2021/11/04 07:20:26;;;;;;;;;;;;;;;9.19;81.71;96529.75;1737276;80;21972;-88
2021/11/04 07:23:00;;;;;;;;;;;;;;;9.26;81.78;96514.34;1745608;80;26846;-88
2021/11/04 07:25:28;;;;;;;;;;;;;;;9.41;81.90;96524.63;1746383;80;24507;-88
2021/11/04 07:27:55;;;;;;;;;;;;;;;9.72;82.07;96522.00;1737565;80;20639;-83
2021/11/04 07:30:22;;;;;;;;;;;;;;;10.02;82.26;96527.35;1732094;80;24918;-83
2021/11/04 07:32:54;;;;;;;;;;;;;;;10.27;82.47;96532.31;1738365;80;22157;-83
2021/11/04 07:35:21;;;;;;;;;;;;;;;10.54;82.65;96529.57;1745180;80;25933;-83
2021/11/04 07:37:47;;;;;;;;;;;;;;;10.82;82.84;96523.20;1745528;80;24380;-84
2021/11/04 07:40:14;;;;;;;;;;;;;;;11.11;83.00;96525.97;1713814;82;20352;-83
2021/11/04 07:42:42;;;;;;;;;;;;;;;11.40;83.17;96509.89;1744882;80;24749;-84
2021/11/04 07:45:08;;;;;;;;;;;;;;;11.66;83.30;96497.02;1725354;81;21932;-84
2021/11/04 07:47:38;;;;;;;;;;;;;;;11.90;83.39;96485.76;1748095;80;26050;-86
2021/11/04 07:50:05;;;;;;;;;;;;;;;12.14;83.47;96477.09;1744816;80;24484;-86
2021/11/04 07:52:32;;;;;;;;;;;;;;;12.36;83.51;96479.53;1748217;80;20154;-86
2021/11/04 07:54:59;;;;;;;;;;;;;;;12.67;83.49;96483.08;1750508;80;24788;-86
2021/11/04 07:57:28;;;;;;;;;;;;;;;12.91;83.45;96481.70;1711100;81;22418;-86
2021/11/04 07:59:54;;;;;;;;;;;;;;;13.18;83.38;96469.98;1737554;80;26073;-86
2021/11/04 08:02:20;;;;;;;;;;;;;;;13.35;83.29;96482.05;1736980;80;24413;-86
2021/11/04 08:04:46;;;;;;;;;;;;;;;13.48;83.16;96475.39;1739673;80;20240;-84
2021/11/04 08:07:12;;;;;;;;;;;;;;;13.64;83.01;96484.00;1735283;81;20246;-84
2021/11/04 08:09:38;;;;;;;;;;;;;;;13.82;82.81;96469.27;1742229;81;22034;-86
2021/11/04 08:12:05;;;;;;;;;;;;;;;13.94;82.61;96471.00;1740373;80;26018;-87
2021/11/04 08:14:30;;;;;;;;;;;;;;;14.07;82.41;96447.04;1735160;81;25167;-84
2021/11/04 08:16:57;;;;;;;;;;;;;;;14.25;82.17;96455.94;1738938;81;20285;-85
2021/11/04 08:19:23;;;;;;;;;;;;;;;14.37;81.99;96459.81;1735383;81;25515;-84
2021/11/04 08:21:48;;;;;;;;;;;;;;;14.50;81.78;96464.47;1744124;81;20891;-84
2021/11/04 08:24:14;;;;;;;;;;;;;;;14.59;81.58;96455.48;1745802;81;21044;-84
2021/11/04 08:26:40;;;;;;;;;;;;;;;14.68;81.40;96469.37;1737495;81;20376;-84
2021/11/04 08:29:06;;;;;;;;;;;;;;;14.77;81.18;96473.08;1745751;81;20348;-84
2021/11/04 08:31:32;;;;;;;;;;;;;;;14.84;81.00;96464.75;1741939;81;20276;-84
2021/11/04 08:33:58;;;;;;;;;;;;;;;14.91;80.82;96470.93;1745335;81;22001;-84
2021/11/04 08:36:24;;;;;;;;;;;;;;;14.99;80.60;96487.16;1737302;81;25960;-84
2021/11/04 08:38:51;;;;;;;;;;;;;;;15.12;80.35;96466.73;1743156;81;24371;-84
2021/11/04 08:41:16;;;;;;;;;;;;;;;15.23;80.10;96459.17;1747076;80;20514;-89
2021/11/04 08:43:42;;;;;;;;;;;;;;;15.33;79.83;96441.25;1737504;81;20362;-88
2021/11/04 08:46:08;;;;;;;;;;;;;;;15.42;79.54;96457.30;1741464;81;20381;-89
2021/11/04 08:48:35;;;;;;;;;;;;;;;15.53;79.22;96449.94;1742421;81;26041;-89
2021/11/04 08:51:02;;;;;;;;;;;;;;;15.58;78.92;96451.00;1743558;81;25596;-88
2021/11/04 08:53:28;;;;;;;;;;;;;;;15.59;78.61;96446.55;1741976;81;20313;-86
2021/11/04 08:55:54;;;;;;;;;;;;;;;15.62;78.26;96473.35;1742923;81;24800;-86
2021/11/04 08:58:21;;;;;;;;;;;;;;;15.63;77.98;96483.41;1742697;81;21922;-85
2021/11/04 09:00:47;;;;;;;;;;;;;;;15.66;77.70;96493.06;1743596;81;25992;-86
2021/11/04 09:03:15;;;;;;;;;;;;;;;15.75;77.46;96499.06;1746594;80;24560;-88
2021/11/04 09:05:43;;;;;;;;;;;;;;;15.82;77.11;96487.56;1743550;79;20194;-88
2021/11/04 09:08:11;;;;;;;;;;;;;;;15.89;76.82;96485.81;1753933;80;25665;-88
2021/11/04 09:10:46;;;;;;;;;;;;;;;15.93;76.51;96481.50;1754852;79;22027;-88
2021/11/04 09:13:24;;;;;;;;;;;;;;;15.95;76.18;96458.36;1758155;79;26155;-88
2021/11/04 09:15:50;;;;;;;;;;;;;;;15.93;75.88;96468.31;1777512;79;24400;-86
2021/11/04 09:18:20;;;;;;;;;;;;;;;15.93;75.59;96481.50;1775104;79;20217;-85
2021/11/04 09:20:47;;;;;;;;;;;;;;;15.94;75.32;96463.32;1741047;80;25353;-85
2021/11/04 09:23:13;;;;;;;;;;;;;;;15.95;75.13;96463.14;1774286;79;22002;-85
2021/11/04 09:25:39;;;;;;;;;;;;;;;15.98;74.91;96464.60;1740791;81;26056;-85
2021/11/04 09:28:06;;;;;;;;;;;;;;;16.00;74.69;96462.57;1743584;81;24355;-85
2021/11/04 09:30:32;;;;;;;;;;;;;;;16.03;74.52;96459.58;1773977;79;20566;-85
2021/11/04 09:32:58;;;;;;;;;;;;;;;16.04;74.30;96458.04;1772317;79;25519;-88
2021/11/04 09:35:25;;;;;;;;;;;;;;;16.08;74.05;96446.63;1740392;81;20781;-84
2021/11/04 09:37:51;;;;;;;;;;;;;;;16.13;73.91;96450.33;1747180;80;26121;-83
2021/11/04 09:40:19;;;;;;;;;;;;;;;16.17;73.72;96452.89;1742857;80;23954;-83
2021/11/04 09:42:47;;;;;;;;;;;;;;;16.22;73.52;96455.77;1761191;80;20305;-83
2021/11/04 09:45:15;;;;;;;;;;;;;;;16.23;73.33;96441.58;1756422;80;24702;-83
2021/11/04 09:47:41;;;;;;;;;;;;;;;16.23;73.12;96450.81;1769141;79;22840;-83
2021/11/04 09:50:14;;;;;;;;;;;;;;;16.26;72.92;96457.02;1745079;81;26702;-84
2021/11/04 09:52:42;;;;;;;;;;;;;;;16.30;72.71;96453.52;1727142;81;24512;-84
2021/11/04 09:55:10;;;;;;;;;;;;;;;16.30;72.50;96465.39;1775930;79;20232;-88
2021/11/04 09:57:37;;;;;;;;;;;;;;;16.34;72.32;96465.31;1776523;79;24975;-87
2021/11/04 10:00:05;;;;;;;;;;;;;;;16.36;72.15;96467.77;1752702;79;22000;-86
2021/11/04 10:02:33;;;;;;;;;;;;;;;16.41;72.01;96458.77;1768596;79;26132;-87
2021/11/04 10:05:03;;;;;;;;;;;;;;;16.43;71.87;96458.06;1731713;80;24451;-87
2021/11/04 10:07:32;;;;;;;;;;;;;;;16.44;71.71;96471.08;1761515;79;20244;-88
2021/11/04 10:10:00;;;;;;;;;;;;;;;16.44;71.53;96453.09;1742289;79;24802;-87
2021/11/04 10:12:26;;;;;;;;;;;;;;;16.45;71.37;96454.73;1760870;79;21979;-88
2021/11/04 10:14:53;;;;;;;;;;;;;;;16.47;71.18;96450.09;1763572;79;25942;-88
2021/11/04 10:17:37;;;;;;;;;;;;;;;16.49;71.05;96448.87;1759940;79;24405;-87
2021/11/04 10:20:13;;;;;;;;;;;;;;;16.52;70.91;96442.41;1750577;80;20372;-87
2021/11/04 10:22:39;;;;;;;;;;;;;;;16.53;70.73;96438.77;1764260;79;24807;-87
2021/11/04 10:25:05;;;;;;;;;;;;;;;16.58;70.59;96439.78;1755892;79;22727;-88
2021/11/04 10:27:33;;;;;;;;;;;;;;;16.62;70.45;96453.47;1769555;79;25844;-87
2021/11/04 10:30:13;;;;;;;;;;;;;;;16.61;70.28;96459.25;1757279;79;24560;-87
2021/11/04 10:32:37;;;;;;;;;;;;;;;16.67;70.18;96472.19;1768022;79;20692;-85
2021/11/04 10:35:07;;;;;;;;;;;;;;;16.74;70.15;96471.74;1752161;79;25473;-85
2021/11/04 10:37:50;;;;;;;;;;;;;;;16.81;70.08;96481.83;1762232;79;21970;-85
2021/11/04 10:40:21;;;;;;;;;;;;;;;16.87;70.05;96473.13;1751455;80;26750;-85
2021/11/04 10:42:52;;;;;;;;;;;;;;;16.91;69.98;96492.07;1757778;79;24980;-85
2021/11/04 10:45:21;;;;;;;;;;;;;;;16.96;69.95;96495.77;1760802;79;20517;-86
2021/11/04 10:47:47;;;;;;;;;;;;;;;17.01;69.84;96488.07;1764937;79;24818;-88
2021/11/04 10:50:15;;;;;;;;;;;;;;;17.10;69.72;96494.81;1743466;80;22013;-88
2021/11/04 10:52:41;;;;;;;;;;;;;;;17.15;69.67;96506.94;1758335;79;25385;-88
2021/11/04 10:55:12;;;;;;;;;;;;;;;17.18;69.58;96475.34;1760086;79;24392;-88
2021/11/04 10:57:38;;;;;;;;;;;;;;;17.25;69.49;96471.39;1761459;79;20228;-89
2021/11/04 11:00:14;;;;;;;;;;;;;;;17.34;69.41;96476.84;1766771;79;24809;-88
2021/11/04 11:02:42;;;;;;;;;;;;;;;17.39;69.35;96475.74;1765135;79;22711;-88
2021/11/04 11:05:10;;;;;;;;;;;;;;;17.42;69.23;96483.27;1765725;79;25990;-87
2021/11/04 11:07:36;;;;;;;;;;;;;;;17.40;68.98;96499.86;1742352;80;24566;-88
2021/11/04 11:10:02;;;;;;;;;;;;;;;17.36;68.77;96486.70;1709605;82;21826;-88
2021/11/04 11:12:28;;;;;;;;;;;;;;;17.31;68.58;96497.87;1739674;80;24773;-88
2021/11/04 11:14:55;;;;;;;;;;;;;;;17.30;68.46;96500.20;1746978;80;21923;-88
2021/11/04 11:17:23;;;;;;;;;;;;;;;17.27;68.36;96495.81;1713836;82;26222;-88
2021/11/04 11:19:49;;;;;;;;;;;;;;;17.23;68.20;96521.02;1744130;80;24540;-89
2021/11/04 11:22:15;;;;;;;;;;;;;;;17.16;68.06;96524.94;1699737;82;20232;-88
2021/11/04 11:24:42;;;;;;;;;;;;;;;17.10;67.89;96522.57;1736568;80;20277;-88
2021/11/04 11:27:14;;;;;;;;;;;;;;;17.05;67.66;96522.34;1748135;80;22185;-89
2021/11/04 11:29:42;;;;;;;;;;;;;;;17.04;67.51;96536.56;1707482;82;26046;-89
2021/11/04 11:32:19;;;;;;;;;;;;;;;17.05;67.33;96536.88;1742498;80;24413;-89
2021/11/04 11:34:46;;;;;;;;;;;;;;;17.06;67.21;96541.66;1712068;82;20471;-89
2021/11/04 11:37:17;;;;;;;;;;;;;;;17.06;67.05;96548.27;1746045;80;24423;-88
2021/11/04 11:39:51;;;;;;;;;;;;;;;17.07;66.92;96543.30;1748046;80;22801;-88
2021/11/04 11:42:22;;;;;;;;;;;;;;;17.07;66.83;96536.69;1735091;80;26205;-88
2021/11/04 11:44:54;;;;;;;;;;;;;;;17.07;66.73;96541.45;1737006;80;24393;-89
2021/11/04 11:47:21;;;;;;;;;;;;;;;17.04;66.61;96553.73;1743285;80;20221;-88
2021/11/04 11:49:57;;;;;;;;;;;;;;;16.99;66.56;96558.79;1713726;82;24822;-89
2021/11/04 11:52:43;;;;;;;;;;;;;;;16.92;66.49;96561.88;1723886;81;21614;-89
2021/11/04 11:55:11;;;;;;;;;;;;;;;16.87;66.45;96566.92;1736294;80;25961;-89
2021/11/04 11:57:40;;;;;;;;;;;;;;;16.92;66.50;96580.88;1739246;80;24443;-88
2021/11/04 12:00:07;;;;;;;;;;;;;;;17.01;66.55;96589.00;1741377;80;20788;-89
2021/11/04 12:02:53;;;;;;;;;;;;;;;17.02;66.50;96609.14;1745631;80;24749;-89
2021/11/04 12:05:24;;;;;;;;;;;;;;;16.95;66.40;96647.89;1713392;82;21994;-84
2021/11/04 12:07:54;;;;;;;;;;;;;;;16.28;66.15;96650.36;1722840;80;26815;-84
2021/11/04 12:10:31;;;;;;;;;;;;;;;15.62;65.91;96663.70;1737665;80;24416;-84
2021/11/04 12:12:58;;;;;;;;;;;;;;;15.12;65.81;96675.70;1730704;80;20465;-84
2021/11/04 12:15:25;;;;;;;;;;;;;;;14.73;65.84;96674.53;1736305;80;24923;-84
2021/11/04 12:18:05;;;;;;;;;;;;;;;14.41;65.97;96683.47;1742652;80;21937;-86
2021/11/04 12:20:31;;;;;;;;;;;;;;;14.15;66.14;96686.88;1725292;80;26247;-85
2021/11/04 12:22:57;;;;;;;;;;;;;;;13.98;66.33;96686.62;1737976;80;24389;-84
2021/11/04 12:25:25;;;;;;;;;;;;;;;13.81;66.55;96697.20;1729442;80;20467;-85
2021/11/04 12:27:53;;;;;;;;;;;;;;;13.71;66.78;96708.41;1735502;80;24772;-84
2021/11/04 12:30:23;;;;;;;;;;;;;;;13.57;67.00;96697.78;1735169;80;22942;-85
2021/11/04 12:33:02;;;;;;;;;;;;;;;13.47;67.19;96717.68;1738793;80;26052;-85
2021/11/04 12:35:42;;;;;;;;;;;;;;;13.42;67.37;96723.90;1729271;80;24426;-85
2021/11/04 12:38:08;;;;;;;;;;;;;;;13.40;67.62;96708.81;1734844;80;20324;-85
2021/11/04 12:40:34;;;;;;;;;;;;;;;13.44;67.78;96715.86;1740840;80;24911;-85
2021/11/04 12:43:11;;;;;;;;;;;;;;;13.49;67.85;96714.38;1738420;80;20190;-85
2021/11/04 12:45:44;;;;;;;;;;;;;;;13.60;67.91;96716.65;1743188;80;26200;-84
2021/11/04 12:48:06;;;;;;;;;;;;;;;13.66;67.85;96721.23;1737116;80;24723;-87
2021/11/04 12:50:33;;;;;;;;;;;;;;;13.65;67.76;96721.40;1732873;80;20272;-83
2021/11/04 12:53:04;;;;;;;;;;;;;;;13.60;67.62;96733.73;1742664;80;24824;-88
2021/11/04 12:55:33;;;;;;;;;;;;;;;13.55;67.47;96749.68;1734420;80;22133;-88